Terminal Aerodrome Forecast
Issued by NWS

Home | Current Version | Previous Version | Text Only | Print | Product List | Glossary On
Versions: 1 2 3 4 5 6 7 8 9 10 11 12 13 14 15 16 17 18 19 20
000
FTUS46 KEKA 302147 AAA
TAFCEC
TAF AMD
KCEC 302147Z 3022/0118 22003KT P6SM OVC005
      TEMPO 3023/3024 SCT005
     FM010300 VRB03KT P6SM BKN004
     FM010600 15008KT 3SM BR BKN004=

USA.gov is the U.S. government's official web portal to all federal, state and local government web resources and services.